Time;durP1;ratioP1;P1;durP2;ratioP2;P2;SDS_P1;SDS_P2;PMS_P1;PMS_P2;Temp;Humidity;BMP_temperature;BMP_pressure;BME280_temperature;BME280_humidity;BME280_pressure;Samples;Min_cycle;Max_cycle;Signal;HPM_P1;HPM_P2
2021/01/06 00:01:29;;;;;;;;;;;27.80;42.30;;;;;;5096050;28;19912;-46
2021/01/06 00:03:55;;;;;;;;;;;27.80;43.70;;;;;;5095926;28;19916;-47
2021/01/06 00:06:28;;;;;;;;;;;27.80;43.20;;;;;;5095788;28;20328;-47
2021/01/06 00:08:53;;;;;;;;;;;27.80;43.10;;;;;;5085186;28;20003;-48
2021/01/06 00:11:19;;;;;;;;;;;27.80;43.00;;;;;;5089744;28;20015;-47
2021/01/06 00:13:48;;;;;;;;;;;27.80;42.80;;;;;;5095621;28;19939;-48
2021/01/06 00:16:13;;;;;;;;;;;27.80;42.70;;;;;;5095867;28;19916;-48
2021/01/06 00:18:39;;;;;;;;;;;27.80;42.70;;;;;;5089845;28;20286;-48
2021/01/06 00:21:04;;;;;;;;;;;27.80;42.60;;;;;;5075550;28;19948;-47
2021/01/06 00:23:30;;;;;;;;;;;27.80;42.70;;;;;;5075353;28;19916;-53
2021/01/06 00:25:55;;;;;;;;;;;27.70;42.60;;;;;;5075176;28;19908;-50
2021/01/06 00:28:21;;;;;;;;;;;27.70;42.60;;;;;;5074027;28;19975;-51
2021/01/06 00:30:56;;;;;;;;;;;27.70;42.50;;;;;;5075123;28;20015;-50
2021/01/06 00:33:23;;;;;;;;;;;27.80;42.50;;;;;;5080205;28;19912;-51
2021/01/06 00:35:49;;;;;;;;;;;27.70;42.40;;;;;;5095501;28;19908;-51
2021/01/06 00:38:15;;;;;;;;;;;27.70;42.30;;;;;;5095453;28;19928;-51
2021/01/06 00:40:40;;;;;;;;;;;27.70;42.30;;;;;;5095509;28;19914;-50
2021/01/06 00:43:06;;;;;;;;;;;27.70;42.20;;;;;;5093734;28;20370;-51
2021/01/06 00:45:32;;;;;;;;;;;27.70;42.10;;;;;;5095135;28;19955;-53
2021/01/06 00:47:57;;;;;;;;;;;27.70;42.10;;;;;;5091296;28;20031;-51
2021/01/06 00:50:24;;;;;;;;;;;27.70;42.00;;;;;;5082646;28;19942;-50
2021/01/06 00:52:49;;;;;;;;;;;27.70;42.00;;;;;;5095075;28;19961;-52
2021/01/06 00:55:15;;;;;;;;;;;27.70;41.90;;;;;;5094870;28;19916;-51
2021/01/06 00:57:40;;;;;;;;;;;27.70;41.90;;;;;;5095188;28;19920;-51
2021/01/06 01:00:07;;;;;;;;;;;27.70;41.80;;;;;;5095113;28;19912;-50
2021/01/06 01:02:32;;;;;;;;;;;27.70;41.80;;;;;;5094953;28;20258;-49
2021/01/06 01:04:57;;;;;;;;;;;27.60;41.70;;;;;;5076417;28;19958;-51
2021/01/06 01:07:26;;;;;;;;;;;27.70;41.70;;;;;;5074483;28;19915;-51
2021/01/06 01:09:52;;;;;;;;;;;27.70;41.60;;;;;;5074661;28;19909;-51
2021/01/06 01:12:17;;;;;;;;;;;27.70;41.60;;;;;;5074295;28;19958;-51
2021/01/06 01:14:43;;;;;;;;;;;27.70;41.50;;;;;;5074584;28;19908;-50
2021/01/06 01:17:09;;;;;;;;;;;27.60;41.40;;;;;;5074120;28;19959;-48
2021/01/06 01:19:34;;;;;;;;;;;27.70;41.40;;;;;;5072568;28;19921;-49
2021/01/06 01:22:00;;;;;;;;;;;27.60;41.30;;;;;;5054240;28;20749;-51
2021/01/06 01:24:25;;;;;;;;;;;27.60;41.40;;;;;;5054416;28;19948;-51
2021/01/06 01:26:51;;;;;;;;;;;27.60;41.30;;;;;;5054132;28;20374;-51
2021/01/06 01:29:16;;;;;;;;;;;27.60;41.20;;;;;;5053982;28;20021;-48
2021/01/06 01:31:45;;;;;;;;;;;27.60;41.20;;;;;;5054233;28;19958;-51
2021/01/06 01:34:11;;;;;;;;;;;27.70;41.30;;;;;;5077178;28;19923;-50
2021/01/06 01:36:36;;;;;;;;;;;27.60;41.10;;;;;;5094488;28;19912;-49
2021/01/06 01:39:02;;;;;;;;;;;27.60;41.00;;;;;;5094156;28;20398;-49
2021/01/06 01:41:28;;;;;;;;;;;27.70;41.10;;;;;;5093806;28;19998;-51
2021/01/06 01:43:53;;;;;;;;;;;27.70;41.00;;;;;;5093986;28;19992;-51
2021/01/06 01:46:19;;;;;;;;;;;27.70;41.00;;;;;;5093914;28;19954;-50
2021/01/06 01:48:45;;;;;;;;;;;27.60;41.00;;;;;;5083940;28;20286;-52
2021/01/06 01:51:31;;;;;;;;;;;27.60;40.90;;;;;;5073424;28;19966;-49
2021/01/06 01:54:02;;;;;;;;;;;27.70;40.90;;;;;;5073745;28;19934;-50
2021/01/06 01:56:30;;;;;;;;;;;27.70;40.90;;;;;;5088672;28;19908;-50
2021/01/06 01:58:55;;;;;;;;;;;27.60;40.90;;;;;;5073258;28;19912;-50
2021/01/06 02:01:21;;;;;;;;;;;27.60;40.80;;;;;;5073478;28;19913;-50
2021/01/06 02:03:50;;;;;;;;;;;27.70;41.00;;;;;;5085385;28;20427;-50
2021/01/06 02:06:30;;;;;;;;;;;27.60;40.90;;;;;;5093633;28;19916;-50
2021/01/06 02:08:59;;;;;;;;;;;27.60;40.90;;;;;;5092308;28;20294;-51
2021/01/06 02:11:27;;;;;;;;;;;27.60;40.80;;;;;;5088651;28;19932;-49
2021/01/06 02:13:57;;;;;;;;;;;27.60;40.80;;;;;;5092339;28;19920;-50
2021/01/06 02:16:43;;;;;;;;;;;27.60;40.80;;;;;;5093574;28;19912;-50
2021/01/06 02:19:09;;;;;;;;;;;27.60;40.80;;;;;;5091501;28;19912;-53
2021/01/06 02:21:35;;;;;;;;;;;27.60;40.80;;;;;;5073976;28;19917;-50
2021/01/06 02:24:00;;;;;;;;;;;27.60;40.70;;;;;;5073295;28;19908;-49
2021/01/06 02:26:26;;;;;;;;;;;27.60;40.70;;;;;;5086961;28;19939;-50
2021/01/06 02:28:52;;;;;;;;;;;27.60;40.60;;;;;;5072860;28;20383;-50
2021/01/06 02:31:17;;;;;;;;;;;27.60;40.60;;;;;;5088533;28;19966;-50
2021/01/06 02:33:43;;;;;;;;;;;27.60;40.50;;;;;;5073210;28;19952;-50
2021/01/06 02:36:08;;;;;;;;;;;27.60;40.50;;;;;;5072781;28;19908;-50
2021/01/06 02:38:34;;;;;;;;;;;27.60;40.50;;;;;;5088417;28;19913;-50
2021/01/06 02:40:59;;;;;;;;;;;27.60;40.50;;;;;;5078201;28;19913;-50
2021/01/06 02:43:25;;;;;;;;;;;27.60;40.50;;;;;;5052844;28;19913;-49
2021/01/06 02:45:50;;;;;;;;;;;27.60;40.50;;;;;;5068317;28;19908;-50
2021/01/06 02:48:16;;;;;;;;;;;27.60;40.40;;;;;;5053014;28;19912;-50
2021/01/06 02:50:42;;;;;;;;;;;27.60;40.50;;;;;;5068230;28;19917;-50
2021/01/06 02:53:08;;;;;;;;;;;27.60;40.40;;;;;;5097885;28;20286;-51
2021/01/06 02:55:33;;;;;;;;;;;27.60;40.40;;;;;;5091796;28;20294;-50
2021/01/06 02:58:01;;;;;;;;;;;27.60;40.30;;;;;;5091620;28;19908;-50
2021/01/06 03:00:27;;;;;;;;;;;27.60;40.20;;;;;;5091929;28;19908;-50
2021/01/06 03:02:53;;;;;;;;;;;27.60;40.30;;;;;;5092731;28;20350;-51
2021/01/06 03:05:19;;;;;;;;;;;27.60;40.20;;;;;;5092716;28;19912;-50
2021/01/06 03:07:45;;;;;;;;;;;27.60;40.20;;;;;;5079186;28;19912;-50
2021/01/06 03:10:16;;;;;;;;;;;27.60;40.20;;;;;;5072747;28;20308;-50
2021/01/06 03:12:41;;;;;;;;;;;27.60;40.20;;;;;;5072863;28;19909;-51
2021/01/06 03:15:07;;;;;;;;;;;27.60;40.20;;;;;;5088311;28;19919;-48
2021/01/06 03:17:32;;;;;;;;;;;27.60;40.20;;;;;;5088033;28;19909;-50
2021/01/06 03:19:59;;;;;;;;;;;27.60;40.20;;;;;;5072394;28;20004;-51
2021/01/06 03:22:25;;;;;;;;;;;27.60;40.20;;;;;;5085293;28;19912;-48
2021/01/06 03:24:51;;;;;;;;;;;27.60;40.20;;;;;;5074349;28;19935;-49
2021/01/06 03:27:17;;;;;;;;;;;27.60;40.20;;;;;;5083522;28;20370;-48
2021/01/06 03:29:42;;;;;;;;;;;27.60;40.20;;;;;;5087783;28;19921;-51
2021/01/06 03:32:10;;;;;;;;;;;27.60;40.20;;;;;;5088258;28;19936;-48
2021/01/06 03:34:40;;;;;;;;;;;27.60;40.20;;;;;;5087823;28;20417;-48
2021/01/06 03:37:09;;;;;;;;;;;27.50;40.10;;;;;;5087764;28;20294;-48
2021/01/06 03:39:36;;;;;;;;;;;27.60;40.20;;;;;;5072520;28;20007;-50
2021/01/06 03:42:02;;;;;;;;;;;27.60;40.20;;;;;;5083208;28;20007;-50
2021/01/06 03:44:27;;;;;;;;;;;27.60;40.80;;;;;;5052133;28;20004;-50
2021/01/06 03:47:06;;;;;;;;;;;27.60;40.20;;;;;;5067843;28;19916;-50
2021/01/06 03:49:41;;;;;;;;;;;27.60;40.20;;;;;;5052336;28;19909;-50
2021/01/06 03:52:08;;;;;;;;;;;27.60;40.20;;;;;;5052257;28;19924;-50
2021/01/06 03:54:40;;;;;;;;;;;27.60;40.20;;;;;;5067831;28;20271;-49
2021/01/06 03:57:05;;;;;;;;;;;27.60;40.20;;;;;;5081891;28;19916;-49
2021/01/06 03:59:31;;;;;;;;;;;27.60;40.20;;;;;;5092167;28;19915;-49
2021/01/06 04:02:00;;;;;;;;;;;27.60;40.10;;;;;;5091314;28;19908;-48
2021/01/06 04:04:36;;;;;;;;;;;27.60;40.10;;;;;;5094576;28;19912;-48
2021/01/06 04:07:02;;;;;;;;;;;27.60;40.10;;;;;;5095996;28;19926;-50
2021/01/06 04:09:31;;;;;;;;;;;27.60;40.10;;;;;;5095932;28;19959;-51
2021/01/06 04:12:04;;;;;;;;;;;27.60;40.00;;;;;;5087538;28;19928;-50
2021/01/06 04:14:30;;;;;;;;;;;27.50;40.00;;;;;;5075713;28;20054;-50
2021/01/06 04:16:55;;;;;;;;;;;27.50;40.00;;;;;;5075793;28;19962;-50
2021/01/06 04:19:21;;;;;;;;;;;27.50;40.00;;;;;;5075340;28;19908;-51
2021/01/06 04:21:46;;;;;;;;;;;27.50;39.90;;;;;;5055605;28;19915;-51
2021/01/06 04:24:13;;;;;;;;;;;27.50;39.90;;;;;;5055237;28;19931;-51
2021/01/06 04:26:39;;;;;;;;;;;27.60;39.90;;;;;;5055548;28;19962;-50
2021/01/06 04:29:05;;;;;;;;;;;27.50;39.80;;;;;;5055068;28;20142;-50
2021/01/06 04:31:30;;;;;;;;;;;27.50;39.80;;;;;;5055061;28;19986;-50
2021/01/06 04:33:56;;;;;;;;;;;27.50;39.80;;;;;;5055349;28;19909;-53
2021/01/06 04:36:29;;;;;;;;;;;27.50;39.10;;;;;;5070795;28;19931;-51
2021/01/06 04:38:55;;;;;;;;;;;27.50;38.60;;;;;;5070314;28;20385;-51
2021/01/06 04:41:23;;;;;;;;;;;27.50;38.90;;;;;;5054988;28;19999;-51
2021/01/06 04:44:01;;;;;;;;;;;27.60;38.80;;;;;;5055137;28;19913;-52
2021/01/06 04:46:45;;;;;;;;;;;27.70;38.60;;;;;;5070344;28;20282;-51
2021/01/06 04:49:32;;;;;;;;;;;27.70;38.40;;;;;;5054922;28;19913;-52
2021/01/06 04:52:00;;;;;;;;;;;27.80;38.40;;;;;;5073544;28;19920;-51
2021/01/06 04:54:44;;;;;;;;;;;27.80;38.20;;;;;;5095140;28;19985;-52
2021/01/06 04:57:20;;;;;;;;;;;27.80;38.20;;;;;;5094930;28;19912;-51
2021/01/06 04:59:46;;;;;;;;;;;27.80;38.20;;;;;;5093492;28;19908;-53
2021/01/06 05:02:26;;;;;;;;;;;27.80;38.10;;;;;;5094803;28;19908;-52
2021/01/06 05:05:01;;;;;;;;;;;27.80;38.10;;;;;;5091511;28;19927;-51
2021/01/06 05:07:37;;;;;;;;;;;27.80;38.00;;;;;;5093485;28;19991;-52
2021/01/06 05:10:08;;;;;;;;;;;27.80;38.00;;;;;;5093601;28;19969;-51
2021/01/06 05:12:35;;;;;;;;;;;27.80;37.90;;;;;;5094507;28;19920;-51
2021/01/06 05:15:09;;;;;;;;;;;27.80;38.00;;;;;;5093783;28;19965;-51
2021/01/06 05:17:35;;;;;;;;;;;27.80;37.90;;;;;;5094537;28;20428;-51
2021/01/06 05:20:01;;;;;;;;;;;27.80;37.90;;;;;;5083646;28;19916;-52
2021/01/06 05:22:26;;;;;;;;;;;27.80;37.80;;;;;;5089941;28;19909;-52
2021/01/06 05:24:52;;;;;;;;;;;27.80;37.80;;;;;;5089715;28;19954;-51
2021/01/06 05:27:21;;;;;;;;;;;27.80;37.80;;;;;;5074146;28;20321;-49
2021/01/06 05:29:48;;;;;;;;;;;27.90;37.80;;;;;;5073894;28;19955;-49
2021/01/06 05:32:16;;;;;;;;;;;27.90;37.80;;;;;;5074345;28;19931;-50
2021/01/06 05:34:42;;;;;;;;;;;27.90;37.80;;;;;;5082644;28;19919;-51
2021/01/06 05:37:09;;;;;;;;;;;27.90;37.70;;;;;;5094063;28;19916;-51
2021/01/06 05:39:35;;;;;;;;;;;27.90;37.80;;;;;;5092815;28;20023;-51
2021/01/06 05:42:18;;;;;;;;;;;27.90;37.70;;;;;;5094566;28;19952;-51
2021/01/06 05:44:47;;;;;;;;;;;27.90;37.70;;;;;;5094302;28;19908;-51
2021/01/06 05:47:20;;;;;;;;;;;27.90;37.70;;;;;;5094045;28;19909;-52
2021/01/06 05:49:46;;;;;;;;;;;27.90;37.60;;;;;;5091913;28;19922;-50
2021/01/06 05:52:12;;;;;;;;;;;27.90;37.70;;;;;;5078444;28;20309;-52
2021/01/06 05:54:42;;;;;;;;;;;27.90;37.60;;;;;;5089124;28;19909;-50
2021/01/06 05:57:10;;;;;;;;;;;27.90;37.50;;;;;;5089013;28;19913;-51
2021/01/06 05:59:42;;;;;;;;;;;27.90;37.60;;;;;;5073765;28;19919;-50
2021/01/06 06:02:08;;;;;;;;;;;27.90;37.50;;;;;;5089382;28;19908;-50
2021/01/06 06:04:48;;;;;;;;;;;27.90;37.50;;;;;;5079997;28;19916;-50
2021/01/06 06:07:32;;;;;;;;;;;27.90;37.50;;;;;;5092299;28;19947;-50
2021/01/06 06:10:05;;;;;;;;;;;27.90;37.50;;;;;;5093419;28;19908;-52
2021/01/06 06:12:42;;;;;;;;;;;27.90;37.50;;;;;;5092589;28;19935;-51
2021/01/06 06:15:20;;;;;;;;;;;27.80;37.40;;;;;;5092055;28;19912;-51
2021/01/06 06:18:03;;;;;;;;;;;27.90;37.50;;;;;;5093388;28;20396;-51
2021/01/06 06:20:43;;;;;;;;;;;27.80;37.50;;;;;;5086728;28;19912;-53
2021/01/06 06:23:09;;;;;;;;;;;27.80;37.40;;;;;;5093264;28;20307;-52
2021/01/06 06:25:35;;;;;;;;;;;27.80;37.50;;;;;;5092703;28;19914;-54
2021/01/06 06:28:18;;;;;;;;;;;27.80;37.40;;;;;;5092661;28;19908;-51
2021/01/06 06:30:50;;;;;;;;;;;27.90;37.40;;;;;;5088594;28;19942;-52
2021/01/06 06:33:31;;;;;;;;;;;27.80;37.30;;;;;;5073189;28;19917;-52
2021/01/06 06:35:57;;;;;;;;;;;27.90;37.40;;;;;;5071537;28;19938;-52
2021/01/06 06:38:52;;;;;;;;;;;27.80;37.30;;;;;;5073091;28;19909;-52
2021/01/06 06:41:47;;;;;;;;;;;27.80;37.30;;;;;;5067816;28;20290;-56
2021/01/06 06:44:23;;;;;;;;;;;27.90;37.30;;;;;;5067954;28;19999;-56
2021/01/06 06:46:54;;;;;;;;;;;27.80;37.30;;;;;;5072539;28;20264;-51
2021/01/06 06:49:38;;;;;;;;;;;27.80;37.30;;;;;;5072809;28;19909;-51
2021/01/06 06:52:04;;;;;;;;;;;27.90;37.30;;;;;;5072561;28;20439;-52
2021/01/06 06:54:48;;;;;;;;;;;27.80;37.10;;;;;;5072830;28;20000;-52
2021/01/06 06:57:29;;;;;;;;;;;27.90;37.30;;;;;;5072908;28;19931;-52
2021/01/06 07:00:07;;;;;;;;;;;27.80;37.20;;;;;;5074287;28;19909;-53
2021/01/06 07:02:40;;;;;;;;;;;27.90;37.20;;;;;;5068010;28;20019;-50
2021/01/06 07:05:06;;;;;;;;;;;27.90;37.10;;;;;;5052359;28;19923;-52
2021/01/06 07:07:39;;;;;;;;;;;27.90;37.20;;;;;;5052394;28;19987;-53
2021/01/06 07:10:15;;;;;;;;;;;27.90;37.10;;;;;;5082429;28;19908;-53
2021/01/06 07:12:41;;;;;;;;;;;27.90;37.10;;;;;;5088179;28;20369;-51
2021/01/06 07:15:07;;;;;;;;;;;27.90;37.10;;;;;;5072697;28;19912;-53
2021/01/06 07:17:34;;;;;;;;;;;27.90;37.00;;;;;;5072723;28;19974;-54
2021/01/06 07:20:01;;;;;;;;;;;27.90;37.00;;;;;;5072835;28;19909;-53
2021/01/06 07:22:29;;;;;;;;;;;27.90;37.00;;;;;;5072651;28;19909;-53
2021/01/06 07:25:03;;;;;;;;;;;27.90;36.90;;;;;;5080977;28;19908;-53
2021/01/06 07:27:32;;;;;;;;;;;27.90;36.90;;;;;;5072693;28;19924;-54
2021/01/06 07:29:57;;;;;;;;;;;27.90;37.00;;;;;;5087753;28;19920;-52
2021/01/06 07:32:33;;;;;;;;;;;27.90;36.90;;;;;;5072610;28;19954;-55
2021/01/06 07:34:59;;;;;;;;;;;27.90;36.90;;;;;;5072053;28;19934;-53
2021/01/06 07:37:24;;;;;;;;;;;27.90;36.90;;;;;;5072861;28;19908;-52
2021/01/06 07:39:56;;;;;;;;;;;27.90;36.90;;;;;;5087535;28;20375;-54
2021/01/06 07:42:42;;;;;;;;;;;27.90;37.00;;;;;;5096624;28;19909;-53
2021/01/06 07:45:28;;;;;;;;;;;27.90;36.90;;;;;;5095865;28;20569;-52
2021/01/06 07:47:59;;;;;;;;;;;27.90;36.90;;;;;;5095782;28;19954;-53
2021/01/06 07:50:24;;;;;;;;;;;27.90;36.90;;;;;;5095254;28;19920;-52
2021/01/06 07:52:50;;;;;;;;;;;27.90;36.80;;;;;;5094939;28;19948;-54
2021/01/06 07:55:24;;;;;;;;;;;27.90;36.80;;;;;;5062221;28;19913;-52
2021/01/06 07:57:53;;;;;;;;;;;27.90;36.90;;;;;;5074225;28;19921;-53
2021/01/06 08:00:25;;;;;;;;;;;27.90;37.30;;;;;;5091471;28;20435;-52
2021/01/06 08:02:57;;;;;;;;;;;27.90;36.80;;;;;;5091417;28;19999;-52
2021/01/06 08:05:26;;;;;;;;;;;27.90;36.80;;;;;;5090522;28;20286;-52
2021/01/06 08:08:04;;;;;;;;;;;27.90;36.80;;;;;;5075672;28;19951;-51
2021/01/06 08:10:29;;;;;;;;;;;27.90;36.70;;;;;;5075513;28;19973;-54
2021/01/06 08:13:14;;;;;;;;;;;27.90;36.80;;;;;;5080993;28;20003;-53
2021/01/06 08:15:39;;;;;;;;;;;27.90;36.70;;;;;;5083505;28;20015;-52
2021/01/06 08:18:05;;;;;;;;;;;27.90;36.80;;;;;;5075457;28;19951;-54
2021/01/06 08:20:37;;;;;;;;;;;27.90;36.80;;;;;;5075637;28;19913;-55
2021/01/06 08:23:15;;;;;;;;;;;27.90;36.80;;;;;;5090892;28;19909;-52
2021/01/06 08:25:41;;;;;;;;;;;27.90;36.70;;;;;;5075867;28;19961;-52
2021/01/06 08:28:14;;;;;;;;;;;27.90;36.70;;;;;;5078860;28;19919;-54
2021/01/06 08:30:40;;;;;;;;;;;27.90;36.60;;;;;;5095687;28;19923;-54
2021/01/06 08:33:09;;;;;;;;;;;27.90;36.60;;;;;;5080037;28;19916;-53
2021/01/06 08:35:38;;;;;;;;;;;27.90;36.60;;;;;;5090710;28;19916;-56
2021/01/06 08:38:04;;;;;;;;;;;27.90;36.60;;;;;;5075119;28;20271;-56
2021/01/06 08:40:29;;;;;;;;;;;27.90;36.60;;;;;;5090620;28;20468;-53
2021/01/06 08:42:55;;;;;;;;;;;27.90;36.50;;;;;;5074940;28;19913;-53
2021/01/06 08:45:46;;;;;;;;;;;27.90;36.60;;;;;;5075111;28;19909;-52
2021/01/06 08:48:24;;;;;;;;;;;27.90;36.60;;;;;;5049404;28;19991;-53
2021/01/06 08:50:49;;;;;;;;;;;27.90;36.50;;;;;;5053882;28;19921;-53
2021/01/06 08:53:15;;;;;;;;;;;27.90;36.50;;;;;;5054958;28;19932;-54
2021/01/06 08:55:54;;;;;;;;;;;27.90;36.60;;;;;;5054536;28;19915;-56
2021/01/06 08:58:19;;;;;;;;;;;27.80;36.50;;;;;;5054819;28;20260;-52
2021/01/06 09:00:56;;;;;;;;;;;27.90;36.60;;;;;;5064072;28;19917;-51
2021/01/06 09:03:23;;;;;;;;;;;27.90;36.50;;;;;;5074697;28;19954;-52
2021/01/06 09:05:48;;;;;;;;;;;27.90;36.50;;;;;;5084745;28;19920;-53
2021/01/06 09:08:14;;;;;;;;;;;27.90;36.40;;;;;;5054857;28;19909;-52
2021/01/06 09:10:43;;;;;;;;;;;27.90;36.50;;;;;;5054749;28;19969;-52
2021/01/06 09:13:13;;;;;;;;;;;27.90;36.50;;;;;;5069471;28;19944;-52
2021/01/06 09:15:46;;;;;;;;;;;27.90;36.40;;;;;;5069889;28;20015;-51
2021/01/06 09:18:22;;;;;;;;;;;27.90;36.40;;;;;;5070081;28;19913;-52
2021/01/06 09:21:21;;;;;;;;;;;27.90;36.40;;;;;;5072520;28;20000;-52
2021/01/06 09:23:50;;;;;;;;;;;27.90;36.40;;;;;;5056865;28;20379;-53
2021/01/06 09:26:16;;;;;;;;;;;27.90;36.40;;;;;;5069907;28;19955;-54
2021/01/06 09:28:41;;;;;;;;;;;27.90;36.40;;;;;;5069654;28;19967;-51
2021/01/06 09:31:07;;;;;;;;;;;27.90;36.40;;;;;;5069663;28;20343;-52
2021/01/06 09:33:34;;;;;;;;;;;27.90;36.30;;;;;;5088351;28;19912;-52
2021/01/06 09:35:59;;;;;;;;;;;27.90;36.30;;;;;;5089612;28;20484;-55
2021/01/06 09:38:31;;;;;;;;;;;27.90;36.40;;;;;;5089537;28;19909;-55
2021/01/06 09:40:58;;;;;;;;;;;27.90;36.30;;;;;;5073743;28;19999;-52
2021/01/06 09:43:30;;;;;;;;;;;27.90;36.30;;;;;;5089612;28;20274;-53
2021/01/06 09:45:56;;;;;;;;;;;;;;;;;;5089591;28;19921;-53
2021/01/06 09:48:21;;;;;;;;;;;27.90;36.20;;;;;;5076245;28;19919;-54
2021/01/06 09:50:51;;;;;;;;;;;27.90;37.40;;;;;;5089263;28;20346;-62
2021/01/06 09:53:18;;;;;;;;;;;27.80;37.40;;;;;;5089191;28;19917;-64
2021/01/06 09:55:44;;;;;;;;;;;27.80;37.70;;;;;;5079421;28;20012;-60
2021/01/06 09:58:28;;;;;;;;;;;27.70;37.80;;;;;;5053473;28;20367;-61
2021/01/06 10:00:56;;;;;;;;;;;27.70;37.90;;;;;;5052985;28;20387;-61
2021/01/06 10:03:27;;;;;;;;;;;27.70;38.20;;;;;;5053357;28;20338;-62
2021/01/06 10:05:55;;;;;;;;;;;27.60;38.40;;;;;;5053727;28;19908;-62
2021/01/06 10:08:25;;;;;;;;;;;27.70;38.80;;;;;;5053620;28;19916;-55
2021/01/06 10:10:51;;;;;;;;;;;27.70;39.00;;;;;;5075668;28;19927;-58
2021/01/06 10:13:35;;;;;;;;;;;27.60;36.50;;;;;;5079124;28;19916;-55
2021/01/06 10:16:04;;;;;;;;;;;27.40;31.30;;;;;;5073201;28;19916;-57
2021/01/06 10:18:30;;;;;;;;;;;27.10;28.10;;;;;;5088816;28;19953;-57
2021/01/06 10:20:59;;;;;;;;;;;26.90;27.00;;;;;;5073206;28;19999;-59
2021/01/06 10:23:45;;;;;;;;;;;26.70;26.60;;;;;;5073201;28;20008;-60
2021/01/06 10:26:16;;;;;;;;;;;26.60;25.90;;;;;;5068856;28;19908;-62
2021/01/06 10:28:42;;;;;;;;;;;26.50;26.50;;;;;;5074884;28;20054;-57
2021/01/06 10:31:15;;;;;;;;;;;26.60;28.20;;;;;;5093136;28;19920;-57
2021/01/06 10:34:13;;;;;;;;;;;26.70;29.50;;;;;;5093301;28;19908;-59
2021/01/06 10:36:38;;;;;;;;;;;26.90;30.00;;;;;;5069760;28;19916;-57
2021/01/06 10:39:04;;;;;;;;;;;27.00;30.70;;;;;;5073489;28;19912;-53
2021/01/06 10:41:32;;;;;;;;;;;27.10;31.10;;;;;;5072628;28;20315;-56
2021/01/06 10:44:01;;;;;;;;;;;27.20;31.40;;;;;;5072831;28;20012;-69
2021/01/06 10:46:42;;;;;;;;;;;27.20;31.50;;;;;;5072901;28;19908;-73
2021/01/06 10:49:33;;;;;;;;;;;27.30;31.70;;;;;;5072691;28;19912;-54
2021/01/06 10:52:01;;;;;;;;;;;27.30;31.80;;;;;;5066365;28;20349;-54
2021/01/06 10:54:45;;;;;;;;;;;27.30;32.10;;;;;;5072472;28;19912;-53
2021/01/06 10:57:19;;;;;;;;;;;27.40;32.30;;;;;;5072711;28;19909;-49
2021/01/06 11:00:01;;;;;;;;;;;27.30;32.60;;;;;;5072572;28;20315;-59
2021/01/06 11:02:28;;;;;;;;;;;27.30;32.40;;;;;;5087891;28;19917;-56
2021/01/06 11:05:13;;;;;;;;;;;27.30;32.70;;;;;;5088350;28;19908;-53
2021/01/06 11:07:58;;;;;;;;;;;27.40;32.80;;;;;;5072530;28;19995;-53
2021/01/06 11:10:33;;;;;;;;;;;27.40;33.10;;;;;;5061087;28;19956;-53
2021/01/06 11:13:17;;;;;;;;;;;27.40;33.10;;;;;;5073940;28;19935;-48
2021/01/06 11:15:44;;;;;;;;;;;27.50;33.50;;;;;;5075936;28;20043;-54
2021/01/06 11:18:14;;;;;;;;;;;27.40;33.30;;;;;;5061317;28;19912;-54
2021/01/06 11:20:41;;;;;;;;;;;27.40;33.70;;;;;;5056453;28;20381;-48
2021/01/06 11:23:27;;;;;;;;;;;27.40;34.30;;;;;;5056245;28;19912;-56
2021/01/06 11:26:13;;;;;;;;;;;27.40;34.10;;;;;;5045155;28;19913;-50
2021/01/06 11:29:14;;;;;;;;;;;27.40;34.60;;;;;;5057276;28;19931;-56
2021/01/06 11:31:40;;;;;;;;;;;27.40;34.50;;;;;;5034248;28;20334;-59
2021/01/06 11:34:08;;;;;;;;;;;27.50;34.80;;;;;;5069270;28;19916;-50
2021/01/06 11:36:37;;;;;;;;;;;27.50;34.90;;;;;;5096777;28;19971;-56
2021/01/06 11:39:03;;;;;;;;;;;27.60;35.20;;;;;;5096591;28;20014;-51
2021/01/06 11:41:29;;;;;;;;;;;27.60;35.20;;;;;;5096378;28;20323;-55
2021/01/06 11:44:06;;;;;;;;;;;27.60;35.30;;;;;;5096628;28;20414;-52
2021/01/06 11:46:32;;;;;;;;;;;27.60;35.40;;;;;;5080822;28;19920;-58
2021/01/06 11:49:12;;;;;;;;;;;27.60;35.40;;;;;;5075854;28;19908;-55
2021/01/06 11:51:38;;;;;;;;;;;27.60;35.40;;;;;;5081976;28;19920;-52
2021/01/06 11:54:16;;;;;;;;;;;27.50;35.60;;;;;;5096096;28;20007;-48
2021/01/06 11:56:47;;;;;;;;;;;27.40;35.10;;;;;;5096344;28;20000;-50
2021/01/06 11:59:13;;;;;;;;;;;27.10;33.30;;;;;;5095076;28;19908;-50
2021/01/06 12:01:45;;;;;;;;;;;27.00;33.80;;;;;;5096245;28;19920;-50
2021/01/06 12:04:13;;;;;;;;;;;27.10;34.50;;;;;;5096108;28;19908;-47
2021/01/06 12:06:38;;;;;;;;;;;27.20;35.00;;;;;;5094247;28;20447;-51
2021/01/06 12:09:04;;;;;;;;;;;27.30;35.20;;;;;;5096016;28;19912;-49
2021/01/06 12:11:30;;;;;;;;;;;27.40;35.40;;;;;;5096068;28;20010;-52
2021/01/06 12:14:05;;;;;;;;;;;27.40;35.40;;;;;;5094666;28;20417;-52
2021/01/06 12:17:06;;;;;;;;;;;27.40;35.40;;;;;;5095751;28;19944;-47
2021/01/06 12:19:53;;;;;;;;;;;27.50;35.50;;;;;;5053076;28;20019;-50
2021/01/06 12:22:20;;;;;;;;;;;27.40;35.60;;;;;;5050603;28;20382;-49
2021/01/06 12:24:49;;;;;;;;;;;27.50;35.70;;;;;;5055525;28;19915;-48
2021/01/06 12:27:18;;;;;;;;;;;27.50;35.70;;;;;;5055632;28;19995;-50
2021/01/06 12:29:46;;;;;;;;;;;27.50;35.80;;;;;;5055021;28;20011;-51
2021/01/06 12:32:17;;;;;;;;;;;27.50;35.80;;;;;;5055411;28;19917;-57
2021/01/06 12:34:45;;;;;;;;;;;27.50;35.70;;;;;;5073577;28;20201;-50
2021/01/06 12:37:10;;;;;;;;;;;27.50;35.80;;;;;;5082203;28;19916;-49
2021/01/06 12:39:36;;;;;;;;;;;27.50;35.90;;;;;;5095624;28;20320;-50
2021/01/06 12:42:14;;;;;;;;;;;27.50;35.90;;;;;;5095450;28;19914;-48
2021/01/06 12:44:43;;;;;;;;;;;27.50;36.00;;;;;;5095411;28;19917;-51
2021/01/06 12:47:19;;;;;;;;;;;27.50;35.90;;;;;;5095284;28;19916;-55
2021/01/06 12:49:52;;;;;;;;;;;27.60;36.00;;;;;;5094975;28;19919;-52
2021/01/06 12:52:27;;;;;;;;;;;27.50;35.90;;;;;;5053884;28;19924;-51
2021/01/06 12:55:12;;;;;;;;;;;27.60;36.10;;;;;;5054947;28;19908;-50
2021/01/06 12:57:42;;;;;;;;;;;27.50;36.00;;;;;;5043331;28;19908;-50
2021/01/06 13:00:13;;;;;;;;;;;27.60;36.00;;;;;;5070372;28;19954;-53
2021/01/06 13:02:39;;;;;;;;;;;27.60;35.90;;;;;;5070073;28;19909;-54
2021/01/06 13:05:10;;;;;;;;;;;27.60;36.00;;;;;;5074118;28;19916;-50
2021/01/06 13:07:36;;;;;;;;;;;27.60;36.10;;;;;;5084189;28;19916;-52
2021/01/06 13:10:04;;;;;;;;;;;27.60;36.20;;;;;;5093774;28;20278;-50
2021/01/06 13:12:34;;;;;;;;;;;27.60;36.20;;;;;;5093478;28;19920;-49
2021/01/06 13:15:02;;;;;;;;;;;27.60;36.60;;;;;;5094643;28;19993;-54
2021/01/06 13:17:33;;;;;;;;;;;27.50;36.50;;;;;;5094853;28;19908;-53
2021/01/06 13:19:58;;;;;;;;;;;27.50;36.60;;;;;;5092035;28;20034;-52
2021/01/06 13:22:24;;;;;;;;;;;27.60;36.40;;;;;;5074235;28;19956;-52
2021/01/06 13:25:02;;;;;;;;;;;27.60;36.30;;;;;;5074195;28;19916;-54
2021/01/06 13:28:06;;;;;;;;;;;27.60;36.30;;;;;;5074231;28;19932;-50
2021/01/06 13:30:34;;;;;;;;;;;27.60;36.20;;;;;;5051656;28;20112;-50
2021/01/06 13:33:13;;;;;;;;;;;27.60;36.20;;;;;;5051697;28;19913;-55
2021/01/06 13:35:39;;;;;;;;;;;27.70;36.30;;;;;;5062887;28;19991;-49
2021/01/06 13:38:13;;;;;;;;;;;27.70;36.30;;;;;;5081222;28;19999;-53
2021/01/06 13:40:39;;;;;;;;;;;27.70;36.30;;;;;;5074164;28;19915;-51
2021/01/06 13:43:07;;;;;;;;;;;27.70;36.20;;;;;;5073878;28;19999;-53
2021/01/06 13:45:36;;;;;;;;;;;27.70;36.20;;;;;;5073626;28;20359;-49
2021/01/06 13:48:05;;;;;;;;;;;27.70;36.20;;;;;;5073990;28;19916;-51
2021/01/06 13:50:37;;;;;;;;;;;27.70;36.20;;;;;;5075860;28;19925;-48
2021/01/06 13:53:11;;;;;;;;;;;27.70;36.20;;;;;;5073477;28;19912;-51
2021/01/06 13:55:38;;;;;;;;;;;27.70;36.30;;;;;;5073890;28;19908;-49
2021/01/06 13:58:09;;;;;;;;;;;27.70;36.30;;;;;;5073543;28;19916;-52
2021/01/06 14:00:47;;;;;;;;;;;27.70;36.40;;;;;;5089225;28;19912;-55
2021/01/06 14:03:15;;;;;;;;;;;27.70;36.40;;;;;;5088826;28;19908;-47
2021/01/06 14:05:41;;;;;;;;;;;27.70;36.40;;;;;;5081841;28;19955;-48
2021/01/06 14:08:09;;;;;;;;;;;27.60;36.30;;;;;;5092630;28;19912;-55
2021/01/06 14:10:34;;;;;;;;;;;27.60;36.20;;;;;;5092475;28;19970;-55
2021/01/06 14:13:26;;;;;;;;;;;27.60;36.30;;;;;;5093671;28;19908;-52
2021/01/06 14:16:04;;;;;;;;;;;27.60;36.30;;;;;;5077105;28;19919;-55
2021/01/06 14:18:42;;;;;;;;;;;27.60;36.20;;;;;;5092517;28;19981;-53
2021/01/06 14:21:11;;;;;;;;;;;27.70;36.30;;;;;;5076650;28;20431;-55
2021/01/06 14:23:38;;;;;;;;;;;27.60;36.20;;;;;;5073093;28;19921;-57
2021/01/06 14:26:06;;;;;;;;;;;27.70;36.30;;;;;;5088776;28;19908;-54
2021/01/06 14:28:39;;;;;;;;;;;27.70;36.30;;;;;;5073088;28;19943;-52
2021/01/06 14:31:04;;;;;;;;;;;27.70;36.30;;;;;;5088594;28;19971;-53
2021/01/06 14:33:49;;;;;;;;;;;27.60;36.30;;;;;;5072876;28;20374;-53
2021/01/06 14:36:17;;;;;;;;;;;27.70;36.40;;;;;;5087837;28;20015;-55
2021/01/06 14:38:50;;;;;;;;;;;27.60;36.30;;;;;;5072918;28;19920;-53